createdAt,value
2022-11-14T00:00:57.854Z,74773.59
2022-11-14T00:02:49.356Z,74773.59
2022-11-14T00:04:40.600Z,74773.59
2022-11-14T00:06:32.434Z,74771.63
2022-11-14T00:08:25.658Z,74771.63
2022-11-14T00:10:18.109Z,74769.66
2022-11-14T00:12:13.170Z,74773.59
2022-11-14T00:14:04.359Z,74777.56
2022-11-14T00:15:56.046Z,74777.56
2022-11-14T00:17:47.295Z,74777.56
2022-11-14T00:19:38.533Z,74783.47
2022-11-14T00:21:30.142Z,74781.50
2022-11-14T00:23:22.199Z,74795.34
2022-11-14T00:25:14.296Z,74789.41
2022-11-14T00:27:05.396Z,74799.28
2022-11-14T00:28:57.152Z,74799.28
2022-11-14T00:30:49.465Z,74801.28
2022-11-14T00:32:40.817Z,74807.19
2022-11-14T00:34:32.813Z,74811.16
2022-11-14T00:36:24.246Z,74809.19
2022-11-14T00:38:15.491Z,74805.22
2022-11-14T00:40:07.138Z,74825.00
2022-11-14T00:41:58.698Z,74825.00
2022-11-14T00:43:50.919Z,74823.00
2022-11-14T00:45:45.123Z,74830.91
2022-11-14T00:47:36.572Z,74834.88
2022-11-14T00:49:27.707Z,74832.91
2022-11-14T00:51:18.742Z,74828.94
2022-11-14T00:53:10.333Z,74844.75
2022-11-14T00:55:02.020Z,74846.72
2022-11-14T00:56:53.273Z,74840.81
2022-11-14T00:58:44.932Z,74852.66
2022-11-14T01:00:36.937Z,74846.72
2022-11-14T01:02:28.030Z,74856.63
2022-11-14T01:04:19.280Z,74858.59
2022-11-14T01:06:12.144Z,74868.47
2022-11-14T01:08:03.515Z,74868.47
2022-11-14T01:09:54.743Z,74876.38
2022-11-14T01:11:46.349Z,74880.34
2022-11-14T01:13:37.382Z,74884.28
2022-11-14T01:15:29.080Z,74884.28
2022-11-14T01:17:20.544Z,74896.16
2022-11-14T01:19:12.017Z,74892.19
2022-11-14T01:21:09.142Z,74896.16
2022-11-14T01:23:00.649Z,74902.06
2022-11-14T01:24:52.055Z,74898.13
2022-11-14T01:26:43.376Z,74908.00
2022-11-14T01:28:34.852Z,74896.16
2022-11-14T01:30:26.446Z,74911.97
2022-11-14T01:32:18.056Z,74915.91
2022-11-14T01:34:10.376Z,74911.97
2022-11-14T01:36:01.891Z,74908.00
2022-11-14T01:37:53.329Z,74925.78
2022-11-14T01:39:44.556Z,74935.69
2022-11-14T01:41:36.099Z,74923.81
2022-11-14T01:43:33.092Z,74947.53
2022-11-14T01:45:54.049Z,74935.69
2022-11-14T01:47:45.519Z,74951.50
2022-11-14T01:49:41.711Z,74953.47
2022-11-14T01:52:10.114Z,74957.41
2022-11-14T01:54:07.718Z,74961.38
2022-11-14T01:56:03.342Z,74971.25
2022-11-14T01:57:55.725Z,74977.19
2022-11-14T01:59:51.838Z,74975.22
2022-11-14T02:01:47.506Z,75000.91
2022-11-14T02:03:40.849Z,74979.16
2022-11-14T02:05:33.141Z,74981.13
2022-11-14T02:07:27.822Z,74991.03
2022-11-14T02:09:20.143Z,74994.97
2022-11-14T02:11:12.484Z,74998.94
2022-11-14T02:13:03.739Z,74998.94
2022-11-14T02:14:58.462Z,74998.94
2022-11-14T02:17:07.625Z,74998.94
2022-11-14T02:19:02.015Z,75002.88
2022-11-14T02:20:53.399Z,75002.88
2022-11-14T02:22:44.581Z,75004.84
2022-11-14T02:24:37.417Z,75000.91
2022-11-14T02:26:33.009Z,75008.81
2022-11-14T02:28:28.392Z,75030.56
2022-11-14T02:30:22.857Z,75010.78
2022-11-14T02:32:14.199Z,75022.66
2022-11-14T02:34:05.344Z,75020.66
2022-11-14T02:35:56.722Z,75020.66
2022-11-14T02:37:48.186Z,75018.69
2022-11-14T02:39:39.856Z,75022.66
2022-11-14T02:41:31.240Z,75022.66
2022-11-14T02:43:22.924Z,75026.59
2022-11-14T02:45:14.536Z,75016.72
2022-11-14T02:47:05.709Z,75026.59
2022-11-14T02:48:57.287Z,75028.56
2022-11-14T02:50:49.640Z,75030.56
2022-11-14T02:52:41.214Z,75028.56
2022-11-14T02:54:32.627Z,75038.47
2022-11-14T02:56:23.958Z,75038.47
2022-11-14T02:58:15.478Z,75038.47
2022-11-14T03:00:11.819Z,75042.41
2022-11-14T03:02:06.314Z,75040.44
2022-11-14T03:03:57.598Z,75044.38
2022-11-14T03:05:49.336Z,75046.38
2022-11-14T03:07:40.457Z,75062.19
2022-11-14T03:09:32.118Z,75052.31
2022-11-14T03:11:23.280Z,75062.19
2022-11-14T03:13:14.588Z,75062.19
2022-11-14T03:15:07.903Z,75070.09
2022-11-14T03:16:59.703Z,75072.06
2022-11-14T03:18:51.055Z,75074.03
2022-11-14T03:20:42.321Z,75074.03
2022-11-14T03:22:33.465Z,75083.94
2022-11-14T03:24:24.645Z,75078.00
2022-11-14T03:26:16.926Z,75087.88
2022-11-14T03:28:08.407Z,75085.91
2022-11-14T03:30:00.179Z,75095.78
2022-11-14T03:31:51.654Z,75089.84
2022-11-14T03:33:43.150Z,75097.75
2022-11-14T03:35:34.114Z,75097.75
2022-11-14T03:37:25.947Z,75103.69
2022-11-14T03:39:17.401Z,75109.63
2022-11-14T03:41:08.472Z,75113.56
2022-11-14T03:42:59.840Z,75101.72
2022-11-14T03:44:51.178Z,75117.53
2022-11-14T03:46:42.398Z,75115.56
2022-11-14T03:48:33.987Z,75129.38
2022-11-14T03:50:25.380Z,75121.47
2022-11-14T03:52:16.837Z,75123.47
2022-11-14T03:54:08.411Z,75137.28
2022-11-14T03:55:59.774Z,75129.38
2022-11-14T03:57:51.104Z,75129.38
2022-11-14T03:59:42.331Z,75125.44
2022-11-14T04:01:33.805Z,75129.38
2022-11-14T04:03:25.260Z,75133.34
2022-11-14T04:05:16.890Z,75119.50
2022-11-14T04:07:08.178Z,75121.47
2022-11-14T04:09:00.257Z,75125.44
2022-11-14T04:10:52.028Z,75121.47
2022-11-14T04:12:49.308Z,75129.38
2022-11-14T04:14:40.680Z,75121.47
2022-11-14T04:16:32.229Z,75125.44
2022-11-14T04:18:24.383Z,75129.38
2022-11-14T04:20:16.061Z,75125.44
2022-11-14T04:22:07.399Z,75137.28
2022-11-14T04:23:58.769Z,75131.38
2022-11-14T04:25:49.953Z,75127.41
2022-11-14T04:27:41.253Z,75139.28
2022-11-14T04:29:32.911Z,75135.31
2022-11-14T04:31:23.948Z,75127.41
2022-11-14T04:33:15.644Z,75135.31
2022-11-14T04:35:07.261Z,75133.34
2022-11-14T04:36:58.577Z,75133.34
2022-11-14T04:38:50.172Z,75129.38
2022-11-14T04:40:41.699Z,75127.41
2022-11-14T04:42:32.972Z,75135.31
2022-11-14T04:44:24.501Z,75127.41
2022-11-14T04:46:16.220Z,75123.47
2022-11-14T04:48:07.298Z,75111.59
2022-11-14T04:49:59.155Z,75109.63
2022-11-14T04:51:50.762Z,75105.66
2022-11-14T04:53:41.868Z,75109.63
2022-11-14T04:55:33.381Z,75093.81
2022-11-14T04:57:24.789Z,75095.78
2022-11-14T04:59:20.696Z,75097.75
2022-11-14T05:01:14.627Z,75081.94
2022-11-14T05:03:06.209Z,75089.84
2022-11-14T05:04:57.523Z,75095.78
2022-11-14T05:06:49.297Z,75109.63
2022-11-14T05:08:40.766Z,75101.72
2022-11-14T05:10:32.285Z,75095.78
2022-11-14T05:12:23.838Z,75074.03
2022-11-14T05:14:15.245Z,75044.38
2022-11-14T05:16:06.784Z,75052.31
2022-11-14T05:17:59.147Z,75048.34
2022-11-14T05:19:50.898Z,75052.31
2022-11-14T05:21:42.507Z,75066.13
2022-11-14T05:23:34.374Z,75079.97
2022-11-14T05:25:25.935Z,75070.09
2022-11-14T05:27:17.248Z,75074.03
2022-11-14T05:29:08.507Z,75050.31
2022-11-14T05:31:08.626Z,75076.00
2022-11-14T05:33:01.134Z,75099.75
2022-11-14T05:34:53.085Z,75091.84
2022-11-14T05:36:44.768Z,75105.66
2022-11-14T05:38:36.560Z,75101.72
2022-11-14T05:40:28.283Z,75101.72
2022-11-14T05:42:20.203Z,75113.56
2022-11-14T05:44:11.416Z,75129.38
2022-11-14T05:46:05.237Z,75121.47
2022-11-14T05:47:57.472Z,75125.44
2022-11-14T05:49:48.907Z,75115.56
2022-11-14T05:51:40.475Z,75129.38
2022-11-14T05:53:33.931Z,75141.25
2022-11-14T05:55:25.386Z,75141.25
2022-11-14T05:57:16.867Z,75153.09
2022-11-14T05:59:08.359Z,75135.31
2022-11-14T06:01:20.558Z,75153.09
2022-11-14T06:03:11.770Z,75157.06
2022-11-14T06:05:03.088Z,75164.97
2022-11-14T06:06:54.346Z,75157.06
2022-11-14T06:08:46.431Z,75153.09
2022-11-14T06:10:38.656Z,75164.97
2022-11-14T06:12:32.814Z,75168.91
2022-11-14T06:14:24.276Z,75168.91
2022-11-14T06:16:20.002Z,75168.91
2022-11-14T06:18:11.333Z,75176.81
2022-11-14T06:20:02.890Z,75176.81
2022-11-14T06:21:54.784Z,75186.72
2022-11-14T06:23:47.157Z,75180.78
2022-11-14T06:25:38.472Z,75186.72
2022-11-14T06:27:30.017Z,75194.63
2022-11-14T06:29:21.372Z,75204.50
2022-11-14T06:31:12.932Z,75202.53
2022-11-14T06:33:04.634Z,75218.34
2022-11-14T06:34:56.443Z,75214.38
2022-11-14T06:36:48.112Z,75210.44
2022-11-14T06:38:41.451Z,75214.38
2022-11-14T06:40:32.873Z,75220.31
2022-11-14T06:42:24.629Z,75220.31
2022-11-14T06:44:16.386Z,75212.41
2022-11-14T06:46:10.618Z,75206.47
2022-11-14T06:48:01.780Z,75210.44
2022-11-14T06:49:53.173Z,75214.38
2022-11-14T06:51:44.821Z,75218.34
2022-11-14T06:53:37.725Z,75218.34
2022-11-14T06:55:29.440Z,75212.41
2022-11-14T06:57:20.851Z,75198.56
2022-11-14T06:59:12.699Z,75186.72
2022-11-14T07:01:08.775Z,75192.63
2022-11-14T07:03:00.097Z,75188.69
2022-11-14T07:04:51.854Z,75190.66
2022-11-14T07:06:43.288Z,75194.63
2022-11-14T07:08:35.281Z,75214.38
2022-11-14T07:10:26.784Z,75196.59
2022-11-14T07:12:18.550Z,75204.50
2022-11-14T07:14:10.279Z,75202.53
2022-11-14T07:16:02.433Z,75180.78
2022-11-14T07:17:54.582Z,75190.66
2022-11-14T07:19:46.776Z,75186.72
2022-11-14T07:21:38.442Z,75184.72
2022-11-14T07:23:32.404Z,75184.72
2022-11-14T07:25:24.173Z,75172.88
2022-11-14T07:27:15.637Z,75180.78
2022-11-14T07:29:07.131Z,75178.81
2022-11-14T07:30:58.593Z,75196.59
2022-11-14T07:32:59.109Z,75216.38
2022-11-14T07:34:50.709Z,75212.41
2022-11-14T07:36:42.432Z,75224.28
2022-11-14T07:38:35.286Z,75236.13
2022-11-14T07:40:27.150Z,75226.25
2022-11-14T07:42:18.870Z,75228.22
2022-11-14T07:44:10.602Z,75222.28
2022-11-14T07:46:07.117Z,75212.41
2022-11-14T07:48:01.257Z,75216.38
2022-11-14T07:49:53.006Z,75216.38
2022-11-14T07:51:44.195Z,75210.44
2022-11-14T07:53:35.929Z,75218.34
2022-11-14T07:55:27.431Z,75212.41
2022-11-14T07:57:19.025Z,75210.44
2022-11-14T07:59:10.605Z,75204.50
2022-11-14T08:01:03.193Z,75238.09
2022-11-14T08:02:55.045Z,75228.22
2022-11-14T08:04:46.798Z,75236.13
2022-11-14T08:06:38.505Z,75248.00
2022-11-14T08:08:30.636Z,75242.06
2022-11-14T08:10:22.316Z,75263.81
2022-11-14T08:12:13.880Z,75269.72
2022-11-14T08:14:05.352Z,75283.56
2022-11-14T08:15:56.799Z,75277.63
2022-11-14T08:17:48.566Z,75293.44
2022-11-14T08:19:39.918Z,75295.44
2022-11-14T08:21:31.633Z,75293.44
2022-11-14T08:23:22.682Z,75283.56
2022-11-14T08:25:14.530Z,75291.47
2022-11-14T08:27:06.262Z,75291.47
2022-11-14T08:28:57.499Z,75299.38
2022-11-14T08:30:49.253Z,75301.38
2022-11-14T08:32:40.877Z,75291.47
2022-11-14T08:34:32.359Z,75299.38
2022-11-14T08:36:23.970Z,75307.28
2022-11-14T08:38:15.637Z,75303.34
2022-11-14T08:40:08.061Z,75303.34
2022-11-14T08:41:59.390Z,75319.16
2022-11-14T08:43:50.956Z,75309.28
2022-11-14T08:45:42.511Z,75323.09
2022-11-14T08:47:34.136Z,75323.09
2022-11-14T08:49:25.780Z,75327.06
2022-11-14T08:51:17.340Z,75331.00
2022-11-14T08:53:08.889Z,75358.69
2022-11-14T08:55:00.341Z,75350.78
2022-11-14T08:56:51.928Z,75364.63
2022-11-14T08:58:43.484Z,75352.75
2022-11-14T09:00:35.302Z,75348.81
2022-11-14T09:02:26.766Z,75354.72
2022-11-14T09:04:18.781Z,75358.69
2022-11-14T09:06:11.054Z,75366.59
2022-11-14T09:08:02.867Z,75370.53
2022-11-14T09:09:54.855Z,75386.38
2022-11-14T09:11:47.348Z,75394.28
2022-11-14T09:13:38.861Z,75386.38
2022-11-14T09:15:30.879Z,75390.31
2022-11-14T09:17:22.722Z,75390.31
2022-11-14T09:19:14.120Z,75406.13
2022-11-14T09:21:08.266Z,75392.28
2022-11-14T09:23:03.351Z,75394.28
2022-11-14T09:24:54.745Z,75396.25
2022-11-14T09:26:47.654Z,75392.28
2022-11-14T09:28:42.061Z,75396.25
2022-11-14T09:30:34.894Z,75392.28
2022-11-14T09:32:26.658Z,75402.19
2022-11-14T09:34:18.282Z,75396.25
2022-11-14T09:36:16.017Z,75398.22
2022-11-14T09:38:10.392Z,75386.38
2022-11-14T09:40:02.163Z,75378.47
2022-11-14T09:42:28.118Z,75378.47
2022-11-14T09:44:30.000Z,75372.53
2022-11-14T09:46:25.114Z,75368.56
2022-11-14T09:48:21.578Z,75378.47
2022-11-14T09:50:25.726Z,75386.38
2022-11-14T09:52:20.710Z,75386.38
2022-11-14T09:54:28.949Z,75408.09
2022-11-14T09:56:26.313Z,75419.97
2022-11-14T09:58:21.683Z,75412.06
2022-11-14T10:00:18.261Z,75414.03
2022-11-14T10:02:27.624Z,75414.03
2022-11-14T10:04:44.221Z,75437.75
2022-11-14T10:06:43.502Z,75435.78
2022-11-14T10:09:18.179Z,75445.66
2022-11-14T10:11:14.333Z,75457.53
2022-11-14T10:13:26.860Z,75455.56
2022-11-14T10:15:43.175Z,75471.38
2022-11-14T10:17:47.086Z,75465.44
2022-11-14T10:19:50.911Z,75473.34
2022-11-14T10:22:12.836Z,75483.22
2022-11-14T10:24:24.850Z,75481.25
2022-11-14T10:26:28.224Z,75481.25
2022-11-14T10:28:41.529Z,75479.28
2022-11-14T10:30:44.376Z,75481.25
2022-11-14T10:32:54.120Z,75487.19
2022-11-14T10:35:09.886Z,75487.19
2022-11-14T10:37:22.894Z,75489.16
2022-11-14T10:39:21.555Z,75489.16
2022-11-14T10:41:34.745Z,75471.38
2022-11-14T10:43:35.631Z,75467.41
2022-11-14T10:45:43.455Z,75479.28
2022-11-14T10:47:44.859Z,75522.75
2022-11-14T10:49:38.820Z,75495.09
2022-11-14T10:51:44.588Z,75503.00
2022-11-14T10:54:01.617Z,75510.91
2022-11-14T10:56:04.137Z,75518.81
2022-11-14T10:57:58.301Z,75518.81
2022-11-14T10:59:49.441Z,75532.66
2022-11-14T11:01:40.648Z,75530.66
2022-11-14T11:03:44.982Z,75526.72
2022-11-14T11:05:46.017Z,75528.69
2022-11-14T11:08:36.280Z,75530.66
2022-11-14T11:10:42.008Z,75548.47
2022-11-14T11:12:50.805Z,75560.31
2022-11-14T11:14:42.798Z,75554.41
2022-11-14T11:16:34.407Z,75560.31
2022-11-14T11:18:31.109Z,75562.31
2022-11-14T11:20:38.063Z,75568.22
2022-11-14T11:22:39.469Z,75580.09
2022-11-14T11:24:40.051Z,75578.13
2022-11-14T11:26:33.109Z,75584.06
2022-11-14T11:28:24.340Z,75576.13
2022-11-14T11:30:25.894Z,75591.97
2022-11-14T11:32:26.852Z,75591.97
2022-11-14T11:34:24.711Z,75591.97
2022-11-14T11:36:20.613Z,75599.88
2022-11-14T11:38:15.731Z,75613.69
2022-11-14T11:40:13.863Z,75619.63
2022-11-14T11:42:10.881Z,75627.53
2022-11-14T11:44:08.409Z,75619.63
2022-11-14T11:46:03.737Z,75627.53
2022-11-14T11:48:17.304Z,75625.56
2022-11-14T11:50:21.551Z,75639.41
2022-11-14T11:52:24.858Z,75635.44
2022-11-14T11:54:30.730Z,75635.44
2022-11-14T11:56:31.774Z,75631.50
2022-11-14T11:58:28.526Z,75647.31
2022-11-14T12:00:23.883Z,75651.25
2022-11-14T12:02:24.605Z,75649.28
2022-11-14T12:04:16.380Z,75674.97
2022-11-14T12:06:18.405Z,75667.06
2022-11-14T12:08:43.827Z,75663.13
2022-11-14T12:10:37.366Z,75671.03
2022-11-14T12:13:16.448Z,75671.03
2022-11-14T12:15:25.916Z,75678.94
2022-11-14T12:17:50.724Z,75690.81
2022-11-14T12:20:00.518Z,75700.69
2022-11-14T12:22:23.280Z,75712.56
2022-11-14T12:24:36.252Z,75718.47
2022-11-14T12:26:49.339Z,75718.47
2022-11-14T12:29:19.850Z,75714.53
2022-11-14T12:31:17.208Z,75718.47
2022-11-14T12:33:27.611Z,75722.44
2022-11-14T12:35:24.908Z,75730.34
2022-11-14T12:37:27.727Z,75732.31
2022-11-14T12:39:30.968Z,75738.25
2022-11-14T12:41:42.551Z,75742.19
2022-11-14T12:43:43.446Z,75746.16
2022-11-14T12:45:41.096Z,75758.03
2022-11-14T12:47:32.754Z,75761.97
2022-11-14T12:49:49.134Z,75765.94
2022-11-14T12:51:58.710Z,75754.06
2022-11-14T12:53:50.413Z,75771.84
2022-11-14T12:55:42.070Z,75771.84
2022-11-14T12:57:50.255Z,75771.84
2022-11-14T12:59:59.845Z,75765.94
2022-11-14T13:01:54.137Z,75781.75
2022-11-14T13:03:55.098Z,75785.69
2022-11-14T13:05:59.681Z,75781.75
2022-11-14T13:08:27.760Z,75781.75
2022-11-14T13:10:36.991Z,75795.59
2022-11-14T13:12:51.107Z,75797.56
2022-11-14T13:15:12.331Z,75815.34
2022-11-14T13:17:48.333Z,75807.44
2022-11-14T13:20:05.934Z,75805.47
2022-11-14T13:22:12.629Z,75817.31
2022-11-14T13:24:05.029Z,75821.28
2022-11-14T13:26:11.963Z,75833.16
2022-11-14T13:28:40.358Z,75835.13
2022-11-14T13:31:16.695Z,75837.09
2022-11-14T13:33:08.019Z,75839.06
2022-11-14T13:35:05.963Z,75841.06
2022-11-14T13:37:15.762Z,75841.06
2022-11-14T13:39:18.857Z,75846.97
2022-11-14T13:41:46.524Z,75848.97
2022-11-14T13:44:31.098Z,75864.78
2022-11-14T13:46:39.095Z,75862.81
2022-11-14T13:48:47.996Z,75870.72
2022-11-14T13:50:43.697Z,75862.81
2022-11-14T13:52:42.318Z,75872.69
2022-11-14T13:54:34.334Z,75872.69
2022-11-14T13:56:37.887Z,75866.75
2022-11-14T13:58:38.846Z,75874.66
2022-11-14T14:00:51.494Z,75860.81
2022-11-14T14:03:29.509Z,75878.63
2022-11-14T14:05:43.147Z,75876.63
2022-11-14T14:08:05.156Z,75878.63
2022-11-14T14:10:32.680Z,75872.69
2022-11-14T14:12:33.144Z,75890.47
2022-11-14T14:14:50.465Z,75882.56
2022-11-14T14:17:10.362Z,75890.47
2022-11-14T14:19:42.203Z,75890.47
2022-11-14T14:21:46.237Z,75896.41
2022-11-14T14:23:54.409Z,75892.47
2022-11-14T14:25:57.074Z,75892.47
2022-11-14T14:28:29.737Z,75902.34
2022-11-14T14:30:22.532Z,75902.34
2022-11-14T14:32:16.079Z,75910.25
2022-11-14T14:34:28.456Z,75918.16
2022-11-14T14:36:26.196Z,75928.03
2022-11-14T14:38:26.393Z,75930.03
2022-11-14T14:40:35.611Z,75935.94
2022-11-14T14:42:35.030Z,75935.94
2022-11-14T14:44:40.504Z,75957.69
2022-11-14T14:46:33.865Z,75943.88
2022-11-14T14:48:31.804Z,75959.69
2022-11-14T14:50:27.054Z,75983.41
2022-11-14T14:52:29.361Z,75995.25
2022-11-14T14:54:32.553Z,75991.31
2022-11-14T14:56:25.534Z,76003.16
2022-11-14T14:58:23.252Z,76003.16
2022-11-14T15:00:22.898Z,76007.13
2022-11-14T15:02:18.261Z,76007.13
2022-11-14T15:04:15.557Z,76007.13
2022-11-14T15:06:30.072Z,76015.03
2022-11-14T15:08:21.967Z,76013.06
2022-11-14T15:10:22.656Z,76019.00
2022-11-14T15:12:14.817Z,76028.88
2022-11-14T15:14:07.383Z,76038.75
2022-11-14T15:15:58.899Z,76044.69
2022-11-14T15:17:51.379Z,76040.75
2022-11-14T15:19:46.506Z,76038.75
2022-11-14T15:21:37.810Z,76042.72
2022-11-14T15:23:29.638Z,76040.75
2022-11-14T15:25:21.601Z,76042.72
2022-11-14T15:27:18.611Z,76046.66
2022-11-14T15:29:25.525Z,76050.63
2022-11-14T15:31:22.125Z,76052.59
2022-11-14T15:33:35.266Z,76062.50
2022-11-14T15:35:35.397Z,76066.44
2022-11-14T15:37:28.544Z,76078.31
2022-11-14T15:39:28.351Z,76092.16
2022-11-14T15:41:24.611Z,76094.13
2022-11-14T15:43:44.115Z,76094.13
2022-11-14T15:45:41.679Z,76105.97
2022-11-14T15:47:40.681Z,76100.06
2022-11-14T15:49:32.569Z,76102.03
2022-11-14T15:51:48.976Z,76125.75
2022-11-14T15:53:49.039Z,76137.63
2022-11-14T15:55:40.833Z,76127.72
2022-11-14T15:57:33.269Z,76137.63
2022-11-14T15:59:25.905Z,76147.50
2022-11-14T16:01:24.739Z,76145.53
2022-11-14T16:03:19.485Z,76149.47
2022-11-14T16:05:14.340Z,76151.47
2022-11-14T16:07:07.106Z,76165.31
2022-11-14T16:08:58.657Z,76175.19
2022-11-14T16:10:50.364Z,76181.13
2022-11-14T16:12:43.483Z,76191.00
2022-11-14T16:14:37.441Z,76189.03
2022-11-14T16:16:29.282Z,76194.97
2022-11-14T16:18:20.710Z,76200.88
2022-11-14T16:20:23.440Z,76206.81
2022-11-14T16:22:18.332Z,76224.63
2022-11-14T16:24:21.891Z,76218.69
2022-11-14T16:26:13.292Z,76216.72
2022-11-14T16:28:05.633Z,76220.66
2022-11-14T16:29:57.581Z,76224.63
2022-11-14T16:31:48.902Z,76228.56
2022-11-14T16:33:40.429Z,76236.47
2022-11-14T16:35:32.400Z,76228.56
2022-11-14T16:37:25.460Z,76226.59
2022-11-14T16:39:17.096Z,76236.47
2022-11-14T16:41:09.852Z,76234.50
2022-11-14T16:43:01.102Z,76230.53
2022-11-14T16:44:52.559Z,76232.53
2022-11-14T16:46:45.704Z,76224.63
2022-11-14T16:48:37.557Z,76236.47
2022-11-14T16:50:29.454Z,76248.34
2022-11-14T16:52:21.318Z,76244.38
2022-11-14T16:54:13.200Z,76244.38
2022-11-14T16:56:05.010Z,76244.38
2022-11-14T16:57:57.081Z,76254.28
2022-11-14T16:59:48.499Z,76260.22
2022-11-14T17:01:40.377Z,76264.16
2022-11-14T17:03:36.328Z,76276.03
2022-11-14T17:05:27.569Z,76287.88
2022-11-14T17:07:22.879Z,76295.78
2022-11-14T17:09:15.357Z,76307.66
2022-11-14T17:11:10.717Z,76311.63
2022-11-14T17:13:02.389Z,76317.53
2022-11-14T17:14:55.188Z,76321.50
2022-11-14T17:16:47.222Z,76323.47
2022-11-14T17:18:39.155Z,76327.44
2022-11-14T17:20:31.640Z,76331.38
2022-11-14T17:22:23.322Z,76331.38
2022-11-14T17:24:14.923Z,76329.41
2022-11-14T17:26:09.565Z,76339.28
2022-11-14T17:28:01.336Z,76335.34
2022-11-14T17:29:53.156Z,76337.31
2022-11-14T17:31:47.234Z,76343.25
2022-11-14T17:33:38.909Z,76339.28
2022-11-14T17:35:30.504Z,76339.28
2022-11-14T17:37:21.919Z,76333.38
2022-11-14T17:39:13.304Z,76335.34
2022-11-14T17:41:07.914Z,76335.34
2022-11-14T17:42:59.757Z,76341.28
2022-11-14T17:44:51.109Z,76337.31
2022-11-14T17:46:42.741Z,76347.19
2022-11-14T17:48:34.624Z,76347.19
2022-11-14T17:50:25.720Z,76333.38
2022-11-14T17:52:17.301Z,76343.25
2022-11-14T17:54:09.541Z,76351.16
2022-11-14T17:56:00.948Z,76349.19
2022-11-14T17:57:52.207Z,76351.16
2022-11-14T17:59:43.553Z,76341.28
2022-11-14T18:01:36.686Z,76343.25
2022-11-14T18:03:28.453Z,76351.16
2022-11-14T18:05:21.142Z,76347.19
2022-11-14T18:07:12.863Z,76359.06
2022-11-14T18:09:10.194Z,76361.03
2022-11-14T18:11:07.444Z,76365.00
2022-11-14T18:13:00.377Z,76361.03
2022-11-14T18:14:51.897Z,76390.69
2022-11-14T18:17:11.110Z,76390.69
2022-11-14T18:18:56.307Z,76398.63
2022-11-14T18:20:47.625Z,76402.56
2022-11-14T18:22:39.520Z,76402.56
2022-11-14T18:24:30.797Z,76394.66
2022-11-14T18:26:27.647Z,76412.44
2022-11-14T18:28:19.112Z,76410.47
2022-11-14T18:30:34.765Z,76406.53
2022-11-14T18:32:24.591Z,76424.31
2022-11-14T18:34:16.582Z,76428.28
2022-11-14T18:36:12.931Z,76428.28
2022-11-14T18:38:04.656Z,76426.28
2022-11-14T18:39:56.708Z,76434.19
2022-11-14T18:41:47.936Z,76432.22
2022-11-14T18:43:39.496Z,76436.19
2022-11-14T18:45:30.977Z,76438.16
2022-11-14T18:47:22.544Z,76434.19
2022-11-14T18:49:13.867Z,76442.13
2022-11-14T18:51:27.289Z,76450.03
2022-11-14T18:53:18.628Z,76457.94
2022-11-14T18:55:10.962Z,76450.03
2022-11-14T18:57:02.996Z,76444.09
2022-11-14T18:58:56.533Z,76438.16
2022-11-14T19:00:48.048Z,76450.03
2022-11-14T19:02:39.779Z,76450.03
2022-11-14T19:04:30.892Z,76440.13
2022-11-14T19:06:22.197Z,76442.13
2022-11-14T19:08:14.558Z,76438.16
2022-11-14T19:10:06.455Z,76442.13
2022-11-14T19:12:16.201Z,76442.13
2022-11-14T19:14:07.649Z,76446.06
2022-11-14T19:16:05.957Z,76453.97
2022-11-14T19:17:57.500Z,76453.97
2022-11-14T19:19:50.136Z,76461.88
2022-11-14T19:21:41.869Z,76465.84
2022-11-14T19:23:34.150Z,76463.88
2022-11-14T19:25:26.629Z,76457.94
2022-11-14T19:27:17.968Z,76473.75
2022-11-14T19:29:15.081Z,76473.75
2022-11-14T19:31:08.292Z,76471.78
2022-11-14T19:33:00.070Z,76467.81
2022-11-14T19:34:51.728Z,76465.84
2022-11-14T19:36:59.275Z,76491.53
2022-11-14T19:38:56.118Z,76473.75
2022-11-14T19:40:51.193Z,76473.75
2022-11-14T19:42:42.791Z,76473.75
2022-11-14T19:44:34.174Z,76481.66
2022-11-14T19:46:27.407Z,76469.78
2022-11-14T19:48:19.113Z,76465.84
2022-11-14T19:50:11.898Z,76467.81
2022-11-14T19:52:02.971Z,76465.84
2022-11-14T19:53:55.818Z,76467.81
2022-11-14T19:55:47.470Z,76467.81
2022-11-14T19:57:38.519Z,76469.78
2022-11-14T19:59:30.375Z,76475.72
2022-11-14T20:01:24.483Z,76477.72
2022-11-14T20:03:16.271Z,76483.63
2022-11-14T20:05:08.708Z,76485.63
2022-11-14T20:06:59.777Z,76481.66
2022-11-14T20:08:51.557Z,76473.75
2022-11-14T20:10:49.954Z,76495.50
2022-11-14T20:12:41.403Z,76483.63
2022-11-14T20:14:32.636Z,76485.63
2022-11-14T20:16:31.266Z,76493.53
2022-11-14T20:18:22.700Z,76501.44
2022-11-14T20:20:14.044Z,76493.53
2022-11-14T20:22:09.291Z,76509.34
2022-11-14T20:24:00.473Z,76503.41
2022-11-14T20:25:53.103Z,76511.31
2022-11-14T20:27:44.616Z,76515.28
2022-11-14T20:29:35.777Z,76509.34
2022-11-14T20:31:29.343Z,76509.34
2022-11-14T20:33:23.270Z,76505.38
2022-11-14T20:35:15.013Z,76511.31
2022-11-14T20:37:11.704Z,76513.28
2022-11-14T20:39:04.084Z,76507.38
2022-11-14T20:40:56.703Z,76505.38
2022-11-14T20:42:51.570Z,76515.28
2022-11-14T20:44:43.244Z,76517.25
2022-11-14T20:46:36.071Z,76515.28
2022-11-14T20:48:29.103Z,76509.34
2022-11-14T20:50:21.593Z,76517.25
2022-11-14T20:52:12.912Z,76517.25
2022-11-14T20:54:04.230Z,76531.09
2022-11-14T20:55:55.949Z,76521.22
2022-11-14T20:57:47.591Z,76529.13
2022-11-14T20:59:38.942Z,76529.13
2022-11-14T21:01:30.903Z,76527.13
2022-11-14T21:03:22.672Z,76527.13
2022-11-14T21:05:14.219Z,76537.03
2022-11-14T21:07:05.935Z,76537.03
2022-11-14T21:08:57.298Z,76540.97
2022-11-14T21:10:50.966Z,76548.88
2022-11-14T21:12:48.398Z,76556.81
2022-11-14T21:14:40.845Z,76556.81
2022-11-14T21:16:34.527Z,76558.78
2022-11-14T21:18:26.534Z,76556.81
2022-11-14T21:20:18.298Z,76572.63
2022-11-14T21:22:09.489Z,76564.72
2022-11-14T21:24:01.631Z,76572.63
2022-11-14T21:25:53.104Z,76596.34
2022-11-14T21:27:44.425Z,76574.59
2022-11-14T21:29:37.405Z,76574.59
2022-11-14T21:31:43.850Z,76576.56
2022-11-14T21:33:35.550Z,76580.53
2022-11-14T21:35:31.722Z,76580.53
2022-11-14T21:37:23.318Z,76592.41
2022-11-14T21:39:17.593Z,76602.28
2022-11-14T21:41:12.416Z,76592.41
2022-11-14T21:43:04.043Z,76606.22
2022-11-14T21:44:55.612Z,76596.34
2022-11-14T21:46:49.038Z,76596.34
2022-11-14T21:48:41.626Z,76596.34
2022-11-14T21:50:33.255Z,76596.34
2022-11-14T21:52:24.897Z,76596.34
2022-11-14T21:54:16.296Z,76600.31
2022-11-14T21:56:29.041Z,76604.25
2022-11-14T21:58:20.654Z,76604.25
2022-11-14T22:00:12.609Z,76596.34
2022-11-14T22:02:22.478Z,76608.22
2022-11-14T22:04:14.573Z,76596.34
2022-11-14T22:06:06.248Z,76598.31
2022-11-14T22:07:57.743Z,76600.31
2022-11-14T22:09:49.434Z,76604.25
2022-11-14T22:11:41.087Z,76600.31
2022-11-14T22:13:32.749Z,76602.28
2022-11-14T22:15:24.865Z,76596.34
2022-11-14T22:17:16.417Z,76596.34
2022-11-14T22:19:08.012Z,76600.31
2022-11-14T22:21:02.818Z,76596.34
2022-11-14T22:22:55.197Z,76616.13
2022-11-14T22:24:46.375Z,76600.31
2022-11-14T22:26:40.287Z,76602.28
2022-11-14T22:28:32.208Z,76590.41
2022-11-14T22:30:24.288Z,76588.44
2022-11-14T22:32:16.029Z,76594.38
2022-11-14T22:34:08.299Z,76596.34
2022-11-14T22:36:16.377Z,76592.41
2022-11-14T22:38:08.526Z,76588.44
2022-11-14T22:39:59.728Z,76588.44
2022-11-14T22:41:51.346Z,76588.44